Time;durP1;ratioP1;P1;durP2;ratioP2;P2;SDS_P1;SDS_P2;PMS_P1;PMS_P2;Temp;Humidity;BMP_temperature;BMP_pressure;BME280_temperature;BME280_humidity;BME280_pressure;Samples;Min_cycle;Max_cycle;Signal;HPM_P1;HPM_P2
2022/10/25 00:01:50;;;;;;;18.33;9.95;;;;;;;11.60;93.35;97389.25;5025238;28;20128;-65
2022/10/25 00:04:16;;;;;;;16.55;8.68;;;;;;;11.63;93.64;97403.19;5027227;28;20133;-64
2022/10/25 00:06:43;;;;;;;17.23;8.85;;;;;;;11.61;93.91;97401.94;5027118;28;20475;-64
2022/10/25 00:09:10;;;;;;;15.95;8.18;;;;;;;11.67;93.59;97397.72;5025348;28;20523;-66
2022/10/25 00:11:37;;;;;;;15.13;8.20;;;;;;;11.67;93.60;97398.53;5026776;28;20492;-64
2022/10/25 00:14:05;;;;;;;20.13;8.48;;;;;;;11.64;93.50;97402.03;5026622;28;20589;-64
2022/10/25 00:16:35;;;;;;;18.25;8.40;;;;;;;11.40;93.76;97371.03;5026466;28;20095;-64
2022/10/25 00:19:03;;;;;;;14.65;7.20;;;;;;;11.57;94.70;97392.75;5026739;28;20099;-64
2022/10/25 00:21:30;;;;;;;13.60;6.45;;;;;;;11.61;94.72;97396.41;5025002;28;20140;-64
2022/10/25 00:23:56;;;;;;;14.93;6.35;;;;;;;11.04;94.37;97296.66;5026277;28;20057;-64
2022/10/25 00:26:23;;;;;;;14.00;6.65;;;;;;;11.21;95.53;97326.69;5025208;28;20165;-66
2022/10/25 00:28:52;;;;;;;17.33;7.03;;;;;;;11.53;96.81;97394.66;5026552;28;20141;-63
2022/10/25 00:31:19;;;;;;;13.27;6.40;;;;;;;11.57;97.09;97387.22;5026412;28;20119;-65
2022/10/25 00:33:46;;;;;;;15.88;6.07;;;;;;;11.58;97.25;97388.81;5025067;28;20049;-66
2022/10/25 00:36:16;;;;;;;13.20;5.65;;;;;;;11.42;96.31;97363.94;5026009;28;20144;-64
2022/10/25 00:38:43;;;;;;;14.48;7.95;;;;;;;11.64;95.42;97381.81;5026328;28;20512;-64
2022/10/25 00:41:12;;;;;;;20.63;8.63;;;;;;;11.56;95.54;97375.31;5024472;28;20172;-63
2022/10/25 00:43:42;;;;;;;19.15;7.82;;;;;;;11.57;95.35;97378.91;5026340;28;20057;-65
2022/10/25 00:46:22;;;;;;;17.83;7.05;;;;;;;11.50;95.68;97370.44;5026027;28;20053;-64
2022/10/25 00:49:14;;;;;;;14.10;6.03;;;;;;;11.55;95.47;97376.50;5026059;28;20065;-64
2022/10/25 00:51:52;;;;;;;13.32;7.18;;;;;;;8.72;95.35;96932.13;5024387;28;20499;-63
2022/10/25 00:54:25;;;;;;;19.27;6.68;;;;;;;11.56;94.54;97380.03;5026008;28;20130;-63
2022/10/25 00:56:53;;;;;;;15.55;8.27;;;;;;;11.45;94.26;97371.53;5025968;28;20053;-64
2022/10/25 00:59:25;;;;;;;17.77;7.97;;;;;;;11.37;94.68;97366.22;5023268;28;20053;-64
2022/10/25 01:01:53;;;;;;;15.07;8.52;;;;;;;10.67;95.70;97280.50;5025365;28;20182;-64
2022/10/25 01:04:25;;;;;;;16.85;7.82;;;;;;;11.21;96.49;97368.25;5025570;28;20543;-64
2022/10/25 01:06:52;;;;;;;17.17;9.13;;;;;;;11.21;96.82;97382.13;5025592;28;20081;-65
2022/10/25 01:09:25;;;;;;;16.00;7.97;;;;;;;10.79;96.14;97287.06;5024224;28;20049;-64
2022/10/25 01:11:52;;;;;;;16.67;7.68;;;;;;;11.35;94.36;97369.34;5025523;28;20080;-64
2022/10/25 01:14:19;;;;;;;12.80;6.30;;;;;;;11.27;94.36;97356.50;5023921;28;20056;-65
2022/10/25 01:17:04;;;;;;;17.20;7.65;;;;;;;11.17;95.58;97362.69;5024894;28;20592;-64
2022/10/25 01:19:52;;;;;;;17.02;7.95;;;;;;;11.16;96.29;97354.72;5025312;28;20540;-65
2022/10/25 01:22:58;;;;;;;19.60;8.10;;;;;;;10.75;96.35;97355.47;5025427;28;20140;-65
2022/10/25 01:25:44;;;;;;;19.13;9.63;;;;;;;10.78;95.93;97349.97;5020504;28;20092;-65
2022/10/25 01:28:42;;;;;;;51.47;19.92;;;;;;;10.44;98.98;97354.41;5024956;28;20492;-64
2022/10/25 01:31:08;;;;;;;16.98;8.45;;;;;;;10.37;97.28;97357.00;5023556;28;20057;-64
2022/10/25 01:34:04;;;;;;;18.25;8.15;;;;;;;10.29;97.99;97360.78;5023495;28;20479;-64
2022/10/25 01:36:34;;;;;;;16.73;7.15;;;;;;;10.38;97.96;97358.63;5020678;28;20563;-63
2022/10/25 01:39:18;;;;;;;18.95;7.35;;;;;;;10.22;98.11;97298.91;5024774;28;20148;-64
2022/10/25 01:42:05;;;;;;;21.23;7.47;;;;;;;10.53;98.31;97343.91;5024738;28;20583;-64
2022/10/25 01:45:29;;;;;;;13.85;7.07;;;;;;;10.57;98.74;97344.78;5024949;28;20049;-65
2022/10/25 01:48:08;;;;;;;19.63;8.85;;;;;;;10.60;100.00;97348.81;5005542;28;20162;-64
2022/10/25 01:50:39;;;;;;;15.43;7.55;;;;;;;10.02;98.91;97262.03;5021785;28;20144;-65
2022/10/25 01:53:06;;;;;;;17.38;7.20;;;;;;;10.48;97.94;97402.34;5023541;28;20500;-66
2022/10/25 01:55:42;;;;;;;18.70;8.07;;;;;;;10.49;98.12;97340.28;5024779;28;20057;-64
2022/10/25 01:58:42;;;;;;;19.00;7.90;;;;;;;10.59;98.51;97345.22;5024901;28;20088;-65
2022/10/25 02:01:48;;;;;;;18.15;7.32;;;;;;;10.62;97.78;97341.72;5024764;28;20057;-63
2022/10/25 02:04:15;;;;;;;12.88;6.80;;;;;;;10.61;97.73;97347.63;5009689;28;20057;-63
2022/10/25 02:06:59;;;;;;;16.25;7.45;;;;;;;10.16;99.69;97301.13;5025018;28;20619;-64
2022/10/25 02:09:39;;;;;;;15.88;7.90;;;;;;;10.46;100.00;97343.75;5024975;28;20140;-67
2022/10/25 02:12:12;;;;;;;21.30;8.30;;;;;;;10.21;100.00;97320.25;5024799;28;20080;-64
2022/10/25 02:14:43;;;;;;;13.88;7.18;;;;;;;10.45;100.00;97342.16;5025982;28;20614;-64
2022/10/25 02:17:21;;;;;;;17.67;8.70;;;;;;;10.44;100.00;97340.56;5028703;28;20532;-65
2022/10/25 02:19:56;;;;;;;22.25;8.98;;;;;;;10.43;99.84;97327.84;5028752;28;20244;-64
2022/10/25 02:22:28;;;;;;;24.42;8.63;;;;;;;10.52;99.23;97342.31;5013402;28;20069;-63
2022/10/25 02:24:56;;;;;;;39.72;16.13;;;;;;;10.29;99.09;97296.31;5028193;28;20053;-65
2022/10/25 02:27:24;;;;;;;43.65;17.63;;;;;;;10.62;99.74;97341.72;5028712;28;20064;-64
2022/10/25 02:29:53;;;;;;;23.25;11.40;;;;;;;10.52;100.00;97335.97;5028473;28;20537;-63
2022/10/25 02:32:20;;;;;;;65.30;19.65;;;;;;;10.18;100.00;97342.34;5026855;28;20123;-64
2022/10/25 02:34:48;;;;;;;51.67;16.15;;;;;;;10.17;100.00;97346.25;5027056;28;20136;-66
2022/10/25 02:37:15;;;;;;;49.28;15.27;;;;;;;10.23;100.00;97347.56;5028405;28;20123;-63
2022/10/25 02:39:43;;;;;;;41.33;14.25;;;;;;;10.25;100.00;97337.75;5028518;28;20085;-63
2022/10/25 02:42:10;;;;;;;41.95;14.38;;;;;;;10.33;100.00;97339.53;5028486;28;20073;-63
2022/10/25 02:44:36;;;;;;;33.63;12.68;;;;;;;10.28;100.00;97309.34;5028073;28;20160;-63
2022/10/25 02:47:03;;;;;;;31.42;10.32;;;;;;;9.89;99.95;97249.50;5028201;28;20132;-64
2022/10/25 02:49:29;;;;;;;19.75;9.98;;;;;;;10.08;99.96;97293.88;5028069;28;20624;-63
2022/10/25 02:51:56;;;;;;;22.25;11.05;;;;;;;10.46;100.00;97343.75;5026612;28;20128;-64
2022/10/25 02:54:23;;;;;;;14.27;7.78;;;;;;;10.55;99.03;97347.13;5028285;28;20141;-64
2022/10/25 02:56:51;;;;;;;16.63;8.23;;;;;;;10.49;98.76;97337.50;5028251;28;20140;-65
2022/10/25 02:59:21;;;;;;;17.42;7.97;;;;;;;10.36;99.76;97338.78;5028052;28;20126;-64
2022/10/25 03:01:47;;;;;;;15.90;7.13;;;;;;;10.22;100.00;97316.31;5028030;28;20057;-63
2022/10/25 03:04:14;;;;;;;15.05;7.40;;;;;;;10.29;100.00;97338.63;5027872;28;20081;-64
2022/10/25 03:06:41;;;;;;;22.08;7.47;;;;;;;9.99;100.00;97290.44;5026827;28;20132;-63
2022/10/25 03:09:07;;;;;;;16.30;7.40;;;;;;;10.34;99.46;97346.66;5027746;28;20595;-63
2022/10/25 03:11:34;;;;;;;14.23;8.02;;;;;;;9.68;99.23;97240.72;5027942;28;20089;-63
2022/10/25 03:14:01;;;;;;;13.98;7.88;;;;;;;10.26;99.37;97333.81;5027476;28;20053;-63
2022/10/25 03:16:27;;;;;;;17.98;8.93;;;;;;;9.78;97.64;97253.19;5027535;28;20145;-64
2022/10/25 03:18:58;;;;;;;16.92;8.63;;;;;;;9.99;96.39;97318.13;5027499;28;20088;-64
2022/10/25 03:21:25;;;;;;;22.88;9.10;;;;;;;10.01;96.54;97337.94;5027292;28;20045;-64
2022/10/25 03:23:52;;;;;;;18.73;8.13;;;;;;;9.97;95.42;97330.72;5027399;28;20081;-64
2022/10/25 03:26:18;;;;;;;20.75;7.75;;;;;;;9.51;95.90;97263.22;5025770;28;20512;-63
2022/10/25 03:28:45;;;;;;;17.67;7.75;;;;;;;9.84;96.12;97318.13;5027489;28;20136;-63
2022/10/25 03:31:14;;;;;;;14.73;7.78;;;;;;;9.95;95.91;97325.53;5027313;28;20080;-64
2022/10/25 03:33:41;;;;;;;17.60;8.00;;;;;;;9.91;95.14;97324.63;5025828;28;20103;-63
2022/10/25 03:36:09;;;;;;;12.90;7.63;;;;;;;9.76;95.50;97319.94;5026727;28;20132;-63
2022/10/25 03:38:35;;;;;;;21.40;8.05;;;;;;;9.84;96.32;97318.97;5027204;28;20161;-63
2022/10/25 03:41:02;;;;;;;14.27;7.85;;;;;;;9.87;100.00;97315.47;5027114;28;20132;-63
2022/10/25 03:43:29;;;;;;;15.93;6.97;;;;;;;8.50;100.00;97284.22;5026810;28;20520;-64
2022/10/25 03:45:56;;;;;;;20.58;7.60;;;;;;;8.88;100.00;97333.41;5027174;28;20145;-63
2022/10/25 03:48:22;;;;;;;15.93;7.40;;;;;;;8.95;100.00;97322.53;5027261;28;20061;-63
2022/10/25 03:50:49;;;;;;;15.73;7.75;;;;;;;9.05;100.00;97302.69;5026780;28;20076;-63
2022/10/25 03:53:16;;;;;;;20.55;8.52;;;;;;;9.20;100.00;97315.72;5026713;28;20057;-63
2022/10/25 03:55:42;;;;;;;16.75;7.90;;;;;;;8.81;100.00;97311.09;5025343;28;20108;-64
2022/10/25 03:58:09;;;;;;;14.40;7.53;;;;;;;8.87;100.00;97246.16;5026752;28;20580;-63
2022/10/25 04:00:35;;;;;;;18.70;8.60;;;;;;;8.27;100.00;97152.59;5026741;28;20127;-63
2022/10/25 04:03:02;;;;;;;16.10;7.80;;;;;;;8.87;100.00;97271.00;5025377;28;20064;-63
2022/10/25 04:05:30;;;;;;;16.58;8.05;;;;;;;9.25;100.00;97321.00;5025322;28;20123;-63
2022/10/25 04:07:58;;;;;;;16.33;8.50;;;;;;;9.08;100.00;97285.41;5025076;28;20063;-63
2022/10/25 04:10:24;;;;;;;13.75;8.30;;;;;;;9.20;100.00;97296.38;5025367;28;20137;-64
2022/10/25 04:12:52;;;;;;;17.02;7.63;;;;;;;9.17;100.00;97273.03;5026202;28;20104;-64
2022/10/25 04:15:21;;;;;;;15.68;8.40;;;;;;;9.34;100.00;97296.75;5026258;28;20084;-64
2022/10/25 04:17:49;;;;;;;19.02;9.40;;;;;;;9.47;100.00;97317.63;5026555;28;20146;-65
2022/10/25 04:20:16;;;;;;;17.00;8.00;;;;;;;9.45;100.00;97303.38;5024882;28;20057;-64
2022/10/25 04:22:43;;;;;;;19.85;8.68;;;;;;;9.47;100.00;97317.63;5026005;28;20563;-63
2022/10/25 04:25:10;;;;;;;17.50;8.25;;;;;;;9.19;100.00;97258.84;5026255;28;20132;-64
2022/10/25 04:27:37;;;;;;;36.75;16.52;;;;;;;9.44;100.00;97285.16;5024749;28;20060;-63
2022/10/25 04:30:04;;;;;;;22.33;12.20;;;;;;;8.90;100.00;97187.44;5026146;28;20115;-64
2022/10/25 04:32:30;;;;;;;22.63;11.85;;;;;;;9.73;100.00;97309.59;5025758;28;20530;-64
2022/10/25 04:34:57;;;;;;;18.77;10.52;;;;;;;9.80;100.00;97309.75;5025714;28;20593;-63
2022/10/25 04:37:24;;;;;;;40.80;17.48;;;;;;;9.64;100.00;97308.94;5025372;28;20499;-63
2022/10/25 04:39:50;;;;;;;35.47;15.40;;;;;;;9.42;100.00;97275.63;5025973;28;20053;-63
2022/10/25 04:42:18;;;;;;;24.45;10.00;;;;;;;9.77;100.00;97310.47;5026054;28;20478;-65
2022/10/25 04:44:44;;;;;;;23.02;10.05;;;;;;;9.88;100.00;97311.53;5024485;28;20187;-65
2022/10/25 04:47:11;;;;;;;24.58;12.40;;;;;;;9.39;100.00;97246.72;5025309;28;20143;-65
2022/10/25 04:49:38;;;;;;;35.55;13.38;;;;;;;9.74;100.00;97311.19;5025429;28;20528;-62
2022/10/25 04:52:04;;;;;;;28.60;11.30;;;;;;;9.74;100.00;97311.19;5025336;28;20518;-65
2022/10/25 04:54:31;;;;;;;28.90;10.00;;;;;;;9.54;99.61;97279.09;5024961;28;20084;-65
2022/10/25 04:56:58;;;;;;;26.20;10.77;;;;;;;9.74;99.66;97308.41;5024094;28;20053;-66
2022/10/25 04:59:24;;;;;;;29.65;13.48;;;;;;;9.81;99.89;97303.06;5024415;28;20137;-66
2022/10/25 05:01:51;;;;;;;28.25;15.07;;;;;;;9.52;97.60;97267.59;5024096;28;20136;-65
2022/10/25 05:04:18;;;;;;;34.58;14.80;;;;;;;9.76;98.44;97308.88;5024516;28;20087;-65
2022/10/25 05:06:44;;;;;;;30.70;13.85;;;;;;;9.79;99.09;97297.09;5024015;28;20156;-64
2022/10/25 05:09:11;;;;;;;22.88;10.07;;;;;;;9.82;100.00;97290.84;5025800;28;20351;-64
2022/10/25 05:11:37;;;;;;;20.48;9.73;;;;;;;9.68;100.00;97262.84;5025680;28;20140;-66
2022/10/25 05:14:04;;;;;;;18.98;8.90;;;;;;;9.92;100.00;97286.72;5025881;28;20049;-65
2022/10/25 05:16:33;;;;;;;26.27;10.25;;;;;;;10.19;100.00;97311.53;5025454;28;20136;-65
2022/10/25 05:19:00;;;;;;;36.40;16.42;;;;;;;9.79;100.00;97266.66;5025441;28;20046;-65
2022/10/25 05:21:29;;;;;;;42.53;17.27;;;;;;;10.27;100.00;97321.59;5025235;28;20081;-65
2022/10/25 05:23:58;;;;;;;39.85;19.02;;;;;;;10.32;100.00;97323.28;5024995;28;20068;-63
2022/10/25 05:26:28;;;;;;;47.25;28.33;;;;;;;10.42;100.00;97308.84;5025314;28;20128;-63
2022/10/25 05:28:55;;;;;;;69.07;45.08;;;;;;;10.53;100.00;97332.84;5023580;28;20088;-63
2022/10/25 05:31:27;;;;;;;92.55;60.67;;;;;;;10.60;99.83;97310.84;5025427;28;20542;-63
2022/10/25 05:33:57;;;;;;;79.65;46.47;;;;;;;10.67;98.91;97322.06;5025204;28;20140;-64
2022/10/25 05:36:24;;;;;;;57.72;36.83;;;;;;;10.81;98.68;97317.97;5023433;28;20144;-65
2022/10/25 05:38:51;;;;;;;61.72;38.80;;;;;;;10.59;98.95;97270.44;5024811;28;20115;-65
2022/10/25 05:41:18;;;;;;;52.53;27.88;;;;;;;10.89;98.37;97314.19;5023876;28;20047;-63
2022/10/25 05:43:45;;;;;;;54.10;17.42;;;;;;;9.06;94.76;97052.84;5019978;28;20583;-64
2022/10/25 05:46:14;;;;;;;55.63;19.17;;;;;;;10.53;92.87;97277.44;5024320;28;20320;-65
2022/10/25 05:48:41;;;;;;;61.70;16.48;;;;;;;10.18;92.08;97182.56;5022810;28;20054;-61
2022/10/25 05:51:22;;;;;;;53.95;14.55;;;;;;;10.82;90.56;97278.00;5023510;28;20107;-68
2022/10/25 05:54:14;;;;;;;60.70;17.83;;;;;;;11.46;90.02;97347.38;5024315;28;20616;-64
2022/10/25 05:56:42;;;;;;;59.58;14.82;;;;;;;10.93;88.89;97312.28;5023858;28;20058;-64
2022/10/25 05:59:11;;;;;;;57.40;17.80;;;;;;;11.31;89.67;97329.66;5025125;28;20081;-64
2022/10/25 06:01:43;;;;;;;44.50;14.88;;;;;;;11.13;88.63;97322.19;5025071;28;20096;-70
2022/10/25 06:04:11;;;;;;;43.45;12.77;;;;;;;11.30;89.49;97324.50;5024397;28;20491;-64
2022/10/25 06:06:39;;;;;;;40.95;12.30;;;;;;;11.70;89.42;97338.69;5024344;28;20095;-70
2022/10/25 06:09:06;;;;;;;31.63;12.90;;;;;;;11.83;88.43;97299.31;5023030;28;20053;-65
2022/10/25 06:11:33;;;;;;;34.65;14.35;;;;;;;10.92;88.08;97138.84;5021604;28;20084;-67
2022/10/25 06:14:00;;;;;;;40.55;14.73;;;;;;;12.19;87.19;97270.91;5022919;28;20053;-65
2022/10/25 06:16:27;;;;;;;24.63;11.18;;;;;;;12.81;86.91;97352.72;5024397;28;20049;-66
2022/10/25 06:18:54;;;;;;;32.15;11.25;;;;;;;12.92;87.03;97331.41;5024466;28;20455;-69
2022/10/25 06:21:24;;;;;;;17.08;8.60;;;;;;;13.18;86.73;97295.19;5023667;28;20123;-69
2022/10/25 06:23:52;;;;;;;20.95;8.70;;;;;;;13.40;85.56;97285.09;5023885;28;20062;-71
2022/10/25 06:26:29;;;;;;;19.25;7.10;;;;;;;13.66;84.79;97279.38;5024269;28;20476;-68
2022/10/25 06:28:58;;;;;;;23.67;8.07;;;;;;;14.30;82.28;97316.91;5023097;28;20073;-64
2022/10/25 06:31:25;;;;;;;18.17;7.70;;;;;;;14.10;81.42;97241.09;5024227;28;20057;-76
2022/10/25 06:33:51;;;;;;;20.73;8.55;;;;;;;14.74;80.26;97317.56;5022841;28;20531;-74
2022/10/25 06:36:21;;;;;;;13.40;7.57;;;;;;;15.30;79.11;97330.97;5023531;28;20139;-65
2022/10/25 06:38:49;;;;;;;26.40;8.32;;;;;;;13.70;77.85;97046.38;5023529;28;20069;-64
2022/10/25 06:41:19;;;;;;;18.67;7.97;;;;;;;15.76;77.05;97329.88;5024076;28;20077;-66
2022/10/25 06:43:47;;;;;;;18.42;7.50;;;;;;;16.07;76.32;97315.16;5023554;28;20397;-68
2022/10/25 06:46:23;;;;;;;16.27;6.97;;;;;;;15.36;74.76;97157.13;5023925;28;20088;-67
2022/10/25 06:48:52;;;;;;;15.35;6.45;;;;;;;16.78;73.28;97320.66;5024449;28;20053;-74
2022/10/25 06:51:20;;;;;;;19.75;7.60;;;;;;;16.77;72.70;97286.28;5023920;28;20099;-65
2022/10/25 06:53:47;;;;;;;16.42;6.78;;;;;;;17.06;71.75;97309.38;5024307;28;20140;-66
2022/10/25 06:56:13;;;;;;;19.88;6.65;;;;;;;16.96;71.60;97271.81;5022777;28;20049;-67
2022/10/25 06:58:41;;;;;;;11.73;6.68;;;;;;;16.98;71.14;97302.19;5023343;28;20072;-64
2022/10/25 07:01:13;;;;;;;15.95;8.00;;;;;;;14.53;74.77;96986.53;5027067;28;20057;-69
2022/10/25 07:03:41;;;;;;;18.15;6.07;;;;;;;15.52;77.27;97227.34;5027371;28;20084;-66
2022/10/25 07:06:10;;;;;;;12.90;6.45;;;;;;;16.37;77.15;97315.53;5027381;28;20080;-65
2022/10/25 07:08:39;;;;;;;16.63;6.10;;;;;;;16.59;75.79;97313.53;5026809;28;20393;-66
2022/10/25 07:11:06;;;;;;;13.55;5.65;;;;;;;16.22;74.13;97226.47;5026093;28;20139;-61
2022/10/25 07:13:33;;;;;;;21.85;5.93;;;;;;;16.72;74.08;97271.94;5025921;28;20116;-65
2022/10/25 07:16:05;;;;;;;11.90;6.03;;;;;;;17.22;72.58;97304.09;5026139;28;20081;-66
2022/10/25 07:18:33;;;;;;;12.02;5.80;;;;;;;17.60;71.33;97312.34;5027262;28;20107;-65
2022/10/25 07:21:00;;;;;;;13.65;6.85;;;;;;;17.92;68.55;97295.31;5026492;28;20084;-67
2022/10/25 07:23:27;;;;;;;14.20;5.70;;;;;;;17.80;67.24;97236.91;5025887;28;20091;-69
2022/10/25 07:25:54;;;;;;;9.75;6.00;;;;;;;17.89;66.38;97234.47;5027110;28;20510;-64
2022/10/25 07:28:21;;;;;;;16.60;6.28;;;;;;;18.57;67.07;97302.75;5027385;28;20076;-64
2022/10/25 07:30:48;;;;;;;12.13;5.43;;;;;;;18.76;64.51;97288.91;5026375;28;20080;-63
2022/10/25 07:33:17;;;;;;;16.80;7.35;;;;;;;19.08;64.25;97278.09;5026288;28;20571;-60
2022/10/25 07:35:45;;;;;;;15.65;7.15;;;;;;;18.73;62.90;97205.53;5025542;28;20152;-65
2022/10/25 07:38:32;;;;;;;18.85;7.45;;;;;;;19.84;61.00;97290.72;5026035;28;20052;-64
2022/10/25 07:40:59;;;;;;;15.40;6.00;;;;;;;19.97;60.71;97297.34;5025074;28;20513;-63
2022/10/25 07:43:27;;;;;;;19.27;6.68;;;;;;;19.46;60.05;97180.47;5026229;28;20042;-66
2022/10/25 07:45:54;;;;;;;14.85;6.07;;;;;;;19.85;59.85;97224.84;5026354;28;20053;-65
2022/10/25 07:48:21;;;;;;;15.25;6.07;;;;;;;20.56;57.83;97275.88;5025403;28;20096;-66
2022/10/25 07:50:48;;;;;;;15.27;6.18;;;;;;;20.57;57.87;97271.81;5026247;28;20069;-66
2022/10/25 07:53:14;;;;;;;19.55;6.47;;;;;;;20.65;57.76;97264.81;5026416;28;20137;-66
2022/10/25 07:55:41;;;;;;;15.60;5.85;;;;;;;20.70;57.20;97236.19;5025929;28;20132;-65
2022/10/25 07:58:10;;;;;;;10.73;4.97;;;;;;;20.68;57.04;97227.34;5026737;28;20053;-67
2022/10/25 08:00:37;;;;;;;15.15;5.72;;;;;;;20.41;56.64;97212.59;5026213;28;20049;-60
2022/10/25 08:03:03;;;;;;;11.18;4.75;;;;;;;19.58;58.68;97217.22;5033470;28;20076;-65
2022/10/25 08:05:30;;;;;;;12.27;4.93;;;;;;;19.58;59.74;97213.63;5025697;28;20500;-62
2022/10/25 08:07:57;;;;;;;12.15;4.97;;;;;;;19.96;57.89;97222.63;5025461;28;20057;-61
2022/10/25 08:10:23;;;;;;;10.57;4.47;;;;;;;20.24;57.29;97199.66;5025913;28;20073;-61
2022/10/25 08:12:53;;;;;;;13.77;4.80;;;;;;;20.93;55.99;97264.25;5025431;28;20073;-61
2022/10/25 08:15:20;;;;;;;14.07;4.45;;;;;;;20.93;55.55;97216.38;5024607;28;20053;-60
2022/10/25 08:17:47;;;;;;;13.68;5.15;;;;;;;21.37;55.06;97255.31;5025634;28;20049;-63
2022/10/25 08:20:14;;;;;;;16.13;4.72;;;;;;;20.90;53.17;97141.22;5024852;28;20053;-61
2022/10/25 08:22:40;;;;;;;14.35;4.90;;;;;;;21.24;52.05;97164.22;5025469;28;20493;-60
2022/10/25 08:25:08;;;;;;;13.90;4.78;;;;;;;21.38;51.82;97163.91;5025613;28;20057;-61
2022/10/25 08:27:34;;;;;;;17.55;5.60;;;;;;;21.45;51.69;97166.53;5024999;28;20076;-67
2022/10/25 08:30:01;;;;;;;17.60;5.68;;;;;;;21.63;51.81;97183.03;5025327;28;20745;-62
2022/10/25 08:32:30;;;;;;;13.88;4.45;;;;;;;21.65;52.57;97234.94;5023735;28;20083;-62
2022/10/25 08:34:56;;;;;;;23.30;5.40;;;;;;;21.24;52.46;97104.25;5023486;28;20268;-70
2022/10/25 08:37:23;;;;;;;21.90;5.20;;;;;;;22.14;51.38;97194.28;5025739;28;20053;-61
2022/10/25 08:39:50;;;;;;;16.35;5.65;;;;;;;22.58;50.65;97222.97;5025175;28;20562;-61
2022/10/25 08:42:27;;;;;;;11.93;5.30;;;;;;;22.64;49.54;97215.53;5025245;28;20401;-59
2022/10/25 08:45:00;;;;;;;;;;;;;;;22.93;49.27;97221.97;5025738;28;20057;-61
2022/10/25 08:47:35;;;;;;;11.93;5.50;;;;;;;22.93;48.27;97217.13;5025697;28;19964;-60
2022/10/25 08:50:21;;;;;;;12.77;5.07;;;;;;;23.16;48.05;97214.00;5025422;28;20151;-64
2022/10/25 08:52:52;;;;;;;8.98;4.97;;;;;;;23.25;48.25;97210.53;5025633;28;20064;-64
2022/10/25 08:55:28;;;;;;;20.58;5.63;;;;;;;23.19;48.15;97178.41;5024982;28;20124;-64
2022/10/25 08:57:55;;;;;;;16.15;6.70;;;;;;;23.28;48.27;97176.53;5025321;28;20107;-63
2022/10/25 09:00:23;;;;;;;14.70;4.68;;;;;;;23.30;47.83;97161.94;5025245;28;20496;-58
2022/10/25 09:02:52;;;;;;;13.80;5.22;;;;;;;23.64;47.15;97198.81;5022910;28;20095;-60
2022/10/25 09:05:39;;;;;;;16.17;5.13;;;;;;;23.78;47.07;97187.84;5023153;28;20117;-60
2022/10/25 09:08:15;;;;;;;15.90;5.32;;;;;;;23.96;46.71;97192.94;5021999;28;20057;-61
2022/10/25 09:11:13;;;;;;;17.48;5.57;;;;;;;24.06;46.35;97185.34;5024511;28;20127;-64
2022/10/25 09:13:59;;;;;;;20.80;5.50;;;;;;;24.26;44.78;97183.03;5023699;28;20183;-60
2022/10/25 09:16:51;;;;;;;20.05;6.18;;;;;;;24.37;44.80;97178.59;5024573;28;20057;-60
2022/10/25 09:19:37;;;;;;;24.17;6.72;;;;;;;24.31;44.68;97177.56;5024716;28;20053;-60
2022/10/25 09:22:23;;;;;;;16.67;5.28;;;;;;;24.48;44.32;97166.88;5025073;28;20088;-58
2022/10/25 09:25:01;;;;;;;14.57;5.03;;;;;;;24.60;43.63;97174.50;5024561;28;20524;-57
2022/10/25 09:27:33;;;;;;;22.27;6.05;;;;;;;24.63;43.33;97165.91;5024715;28;20613;-58
2022/10/25 09:30:05;;;;;;;17.73;5.18;;;;;;;24.32;43.39;97124.56;5023542;28;20144;-58
2022/10/25 09:32:44;;;;;;;12.13;5.65;;;;;;;24.76;43.04;97166.66;5024593;28;20159;-61
2022/10/25 09:35:16;;;;;;;14.45;5.18;;;;;;;24.92;42.52;97152.31;5024721;28;20230;-61
2022/10/25 09:37:47;;;;;;;21.73;5.80;;;;;;;24.21;44.26;97153.25;5024434;28;20130;-59
2022/10/25 09:40:22;;;;;;;15.07;5.53;;;;;;;24.57;43.64;97150.75;5024501;28;20535;-60
2022/10/25 09:42:50;;;;;;;18.52;7.00;;;;;;;24.79;42.94;97143.06;5022994;28;20516;-60
2022/10/25 09:45:23;;;;;;;22.67;6.47;;;;;;;24.64;43.32;97079.66;5023149;28;20049;-60
2022/10/25 09:47:56;;;;;;;13.40;4.93;;;;;;;25.12;42.61;97137.75;5024757;28;20057;-60
2022/10/25 09:50:31;;;;;;;17.80;5.50;;;;;;;25.23;42.62;97133.25;5023322;28;20334;-60
2022/10/25 09:53:12;;;;;;;15.55;5.68;;;;;;;25.18;42.50;97131.03;5024568;28;20559;-61
2022/10/25 09:55:54;;;;;;;15.30;5.22;;;;;;;25.17;42.24;97129.44;5022940;28;20057;-59
2022/10/25 09:58:27;;;;;;;14.00;4.93;;;;;;;25.12;42.38;97118.72;5023084;28;20082;-59
2022/10/25 10:00:57;;;;;;;22.35;6.63;;;;;;;25.20;42.46;97122.84;5024255;28;20469;-61
2022/10/25 10:03:31;;;;;;;13.77;5.45;;;;;;;25.23;42.06;97116.25;5024086;28;20134;-62
2022/10/25 10:06:01;;;;;;;24.90;7.05;;;;;;;24.77;42.16;97043.56;5024015;28;20081;-59
2022/10/25 10:08:33;;;;;;;15.35;6.13;;;;;;;25.49;42.09;97110.38;5024219;28;20092;-60
2022/10/25 10:11:00;;;;;;;25.83;7.45;;;;;;;25.19;41.79;97052.41;5024030;28;20140;-60
2022/10/25 10:14:09;;;;;;;15.57;6.30;;;;;;;25.75;41.42;97118.19;5022510;28;20104;-61
2022/10/25 10:16:44;;;;;;;20.98;6.40;;;;;;;25.87;41.25;97107.97;5023915;28;20081;-60
2022/10/25 10:19:23;;;;;;;17.83;6.18;;;;;;;25.67;41.42;97110.47;5024231;28;20595;-61
2022/10/25 10:21:53;;;;;;;13.50;6.45;;;;;;;25.84;41.85;97104.03;5022383;28;20077;-60
2022/10/25 10:24:24;;;;;;;12.57;5.25;;;;;;;25.80;41.30;97091.28;5023984;28;20160;-60
2022/10/25 10:26:56;;;;;;;25.77;6.38;;;;;;;25.82;41.26;97109.41;5022244;28;20049;-67
2022/10/25 10:29:27;;;;;;;17.60;6.95;;;;;;;25.36;42.24;97098.34;5021035;28;20133;-61
2022/10/25 10:31:59;;;;;;;20.77;7.05;;;;;;;25.47;42.58;97095.88;5023540;28;20049;-60
2022/10/25 10:34:41;;;;;;;20.55;6.65;;;;;;;25.26;41.80;97081.28;5029518;28;20081;-61
2022/10/25 10:37:11;;;;;;;16.27;6.17;;;;;;;25.60;41.79;97093.72;5027384;28;20073;-62
2022/10/25 10:40:06;;;;;;;16.52;5.45;;;;;;;25.02;42.13;97000.84;5026826;28;20045;-64
2022/10/25 10:42:38;;;;;;;13.93;5.47;;;;;;;25.39;41.82;97054.91;5026291;28;20092;-61
2022/10/25 10:45:07;;;;;;;14.30;6.32;;;;;;;25.30;43.12;97081.94;5028058;28;20132;-62
2022/10/25 10:47:35;;;;;;;18.33;5.15;;;;;;;25.45;41.93;97075.72;5027908;28;20591;-60
2022/10/25 10:50:31;;;;;;;16.67;5.88;;;;;;;25.53;42.24;97071.31;5027645;28;20092;-61
2022/10/25 10:53:20;;;;;;;19.67;5.80;;;;;;;25.59;42.15;97081.59;5026885;28;20064;-61
2022/10/25 10:55:49;;;;;;;16.58;6.10;;;;;;;25.73;41.25;97081.00;5027510;28;20157;-62
2022/10/25 10:58:38;;;;;;;21.05;5.72;;;;;;;25.76;40.55;97082.09;5026558;28;20156;-61
2022/10/25 11:01:11;;;;;;;15.15;5.55;;;;;;;25.84;40.73;97117.44;5027304;28;20136;-62
2022/10/25 11:03:44;;;;;;;14.25;5.68;;;;;;;25.87;41.13;97080.41;5025791;28;20049;-60
2022/10/25 11:06:33;;;;;;;17.27;6.72;;;;;;;26.05;40.80;97080.44;5027400;28;20476;-62
2022/10/25 11:09:24;;;;;;;22.65;6.40;;;;;;;26.13;39.94;97078.09;5027395;28;20049;-62
2022/10/25 11:12:09;;;;;;;18.63;6.35;;;;;;;26.15;40.33;97081.22;5023196;28;20143;-63
2022/10/25 11:14:36;;;;;;;20.73;5.90;;;;;;;26.28;40.77;97079.03;5027620;28;20065;-62
2022/10/25 11:17:20;;;;;;;22.10;10.55;;;;;;;26.54;39.94;97074.63;5025643;28;20089;-62
2022/10/25 11:19:56;;;;;;;16.58;6.55;;;;;;;26.56;40.04;97069.22;5027811;28;20085;-61
2022/10/25 11:22:58;;;;;;;15.48;6.38;;;;;;;26.55;39.51;97067.66;5025829;28;20069;-64
2022/10/25 11:25:43;;;;;;;18.95;6.13;;;;;;;26.36;39.93;97012.91;5024192;28;20088;-64
2022/10/25 11:28:46;;;;;;;20.05;6.85;;;;;;;26.88;39.49;97068.56;5026242;28;20073;-62
2022/10/25 11:31:37;;;;;;;19.67;6.40;;;;;;;26.97;39.25;97060.00;5016296;28;20100;-62
2022/10/25 11:34:13;;;;;;;22.38;6.47;;;;;;;27.13;38.67;97056.00;5024823;28;20191;-64
2022/10/25 11:37:05;;;;;;;20.92;6.15;;;;;;;27.29;39.23;97056.44;5026947;28;20562;-63
2022/10/25 11:39:45;;;;;;;20.50;6.97;;;;;;;27.20;38.10;97050.78;5018667;28;20057;-61
2022/10/25 11:43:05;;;;;;;21.63;6.40;;;;;;;27.34;37.83;97043.63;5025286;28;20672;-61
2022/10/25 11:45:47;;;;;;;20.98;6.30;;;;;;;27.41;37.08;97046.91;5025136;28;20053;-65
2022/10/25 11:48:19;;;;;;;24.77;6.55;;;;;;;27.45;37.05;97043.88;5025812;28;20061;-60